createdAt,value
2023-01-30T00:02:41.447Z,-2.05
2023-01-30T00:07:43.093Z,-2.06
2023-01-30T00:12:44.272Z,-2.13
2023-01-30T00:17:45.494Z,-2.26
2023-01-30T00:22:59.437Z,-2.28
2023-01-30T00:27:48.835Z,-2.25
2023-01-30T00:32:50.856Z,-2.26
2023-01-30T00:37:52.579Z,-2.32
2023-01-30T00:42:54.546Z,-2.34
2023-01-30T00:47:56.455Z,-2.29
2023-01-30T00:52:57.802Z,-2.26
2023-01-30T00:57:59.716Z,-2.3
2023-01-30T01:03:01.576Z,-2.35
2023-01-30T01:08:03.347Z,-2.34
2023-01-30T01:13:04.687Z,-2.3
2023-01-30T01:18:06.453Z,-2.29
2023-01-30T01:23:08.109Z,-2.32
2023-01-30T01:28:10.343Z,-2.36
2023-01-30T01:33:12.125Z,-2.34
2023-01-30T01:38:13.717Z,-2.31
2023-01-30T01:43:15.184Z,-2.34
2023-01-30T01:48:17.173Z,-2.42
2023-01-30T01:53:18.576Z,-2.43
2023-01-30T01:58:20.182Z,-2.42
2023-01-30T02:03:21.639Z,-2.4
2023-01-30T02:08:22.783Z,-2.44
2023-01-30T02:13:24.879Z,-2.5
2023-01-30T02:18:26.669Z,-2.49
2023-01-30T02:23:27.840Z,-2.46
2023-01-30T02:28:29.276Z,-2.54
2023-01-30T02:33:30.853Z,-2.63
2023-01-30T02:38:32.459Z,-2.68
2023-01-30T02:43:34.540Z,-2.66
2023-01-30T02:48:36.221Z,-2.61
2023-01-30T02:53:38.364Z,-2.63
2023-01-30T02:58:40.274Z,-2.7
2023-01-30T03:03:41.947Z,-2.67
2023-01-30T03:08:43.209Z,-2.59
2023-01-30T03:13:44.675Z,-2.59
2023-01-30T03:18:45.887Z,-2.64
2023-01-30T03:23:47.869Z,-2.69
2023-01-30T03:28:49.569Z,-2.65
2023-01-30T03:33:51.293Z,-2.61
2023-01-30T03:38:52.863Z,-2.64
2023-01-30T03:43:54.120Z,-2.69
2023-01-30T03:48:55.994Z,-2.7
2023-01-30T03:53:57.469Z,-2.64
2023-01-30T03:58:58.736Z,-2.56
2023-01-30T04:04:00.188Z,-2.63
2023-01-30T04:09:02.187Z,-2.67
2023-01-30T04:14:03.881Z,-2.65
2023-01-30T04:19:05.169Z,-2.56
2023-01-30T04:24:06.581Z,-2.52
2023-01-30T04:29:08.075Z,-2.53
2023-01-30T04:34:09.938Z,-2.54
2023-01-30T04:39:11.278Z,-2.45
2023-01-30T04:44:13.441Z,-2.34
2023-01-30T04:49:15.458Z,-2.33
2023-01-30T04:54:16.455Z,-2.45
2023-01-30T04:59:18.442Z,-2.45
2023-01-30T05:04:20.006Z,-2.39
2023-01-30T05:09:21.792Z,-2.33
2023-01-30T05:14:23.490Z,-2.4
2023-01-30T05:19:25.462Z,-2.45
2023-01-30T05:24:27.451Z,-2.44
2023-01-30T05:29:28.819Z,-2.33
2023-01-30T05:34:30.554Z,-2.25
2023-01-30T05:39:32.670Z,-2.25
2023-01-30T05:44:34.315Z,-2.27
2023-01-30T05:49:36.022Z,-2.23
2023-01-30T05:54:37.691Z,-2.13
2023-01-30T05:59:39.278Z,-2.07
2023-01-30T06:04:41.167Z,-2.08
2023-01-30T06:09:42.473Z,-2.1
2023-01-30T06:14:44.192Z,-2.03
2023-01-30T06:19:45.831Z,-1.88
2023-01-30T06:24:48.001Z,-1.84
2023-01-30T06:29:49.575Z,-1.86
2023-01-30T06:34:51.236Z,-1.83
2023-01-30T06:39:53.139Z,-1.74
2023-01-30T06:44:54.475Z,-1.64
2023-01-30T06:49:56.148Z,-1.56
2023-01-30T06:54:57.314Z,-1.52
2023-01-30T06:59:58.773Z,-1.4
2023-01-30T07:04:59.929Z,-1.24
2023-01-30T07:10:08.118Z,-1.1
2023-01-30T07:15:03.293Z,-1.03
2023-01-30T07:20:04.660Z,-0.99
2023-01-30T07:25:06.044Z,-0.9
2023-01-30T07:30:07.398Z,-0.78
2023-01-30T08:00:18.258Z,-0.18
2023-01-30T08:05:19.899Z,0.05
2023-01-30T08:15:23.057Z,0.51
2023-01-30T08:30:27.947Z,1.21
2023-01-30T08:35:29.514Z,2.26
2023-01-30T08:40:31.054Z,2.62
2023-01-30T08:45:32.867Z,2.53
2023-01-30T09:00:38.099Z,3.71
2023-01-30T09:05:39.818Z,5.26
2023-01-30T09:10:41.374Z,5.78
2023-01-30T09:15:43.172Z,8.09
2023-01-30T09:20:44.869Z,9.39
2023-01-30T09:25:46.877Z,8.68
2023-01-30T09:30:49.064Z,8.42
2023-01-30T09:35:50.621Z,8.47
2023-01-30T09:40:52.652Z,7.96
2023-01-30T09:45:54.759Z,7.67
2023-01-30T09:50:56.206Z,7.86
2023-01-30T09:55:58.241Z,7.25
2023-01-30T10:01:00.190Z,7.4
2023-01-30T10:06:01.415Z,8.89
2023-01-30T10:11:10.818Z,10.87
2023-01-30T10:16:04.199Z,12.59
2023-01-30T10:21:05.712Z,13.82
2023-01-30T10:26:07.561Z,14.72
2023-01-30T10:31:09.260Z,14.21
2023-01-30T10:36:10.873Z,15.25
2023-01-30T10:41:12.844Z,13.39
2023-01-30T10:46:15.039Z,10.86
2023-01-30T10:51:16.807Z,9.53
2023-01-30T10:56:18.475Z,8.5
2023-01-30T11:01:19.768Z,7.55
2023-01-30T11:06:21.089Z,6.72
2023-01-30T11:11:22.732Z,6.29
2023-01-30T11:16:24.717Z,6.09
2023-01-30T11:21:31.989Z,5.51
2023-01-30T11:26:34.845Z,5.42
2023-01-30T11:31:40.684Z,5.12
2023-01-30T11:36:31.058Z,5.07
2023-01-30T11:41:32.619Z,5.05
2023-01-30T11:46:34.761Z,4.92
2023-01-30T11:51:36.368Z,4.69
2023-01-30T11:56:38.387Z,4.67
2023-01-30T12:01:39.802Z,4.55
2023-01-30T12:06:41.420Z,4.41
2023-01-30T12:11:43.349Z,4.29
2023-01-30T12:16:45.238Z,4.1
2023-01-30T12:21:47.014Z,4.19
2023-01-30T12:26:48.403Z,4.12
2023-01-30T12:31:50.093Z,4.08
2023-01-30T12:36:51.476Z,4.04
2023-01-30T12:41:53.244Z,4.17
2023-01-30T12:46:55.417Z,4.31
2023-01-30T12:51:57.624Z,4.36
2023-01-30T12:56:59.084Z,4.46
2023-01-30T13:02:00.725Z,4.63
2023-01-30T13:07:02.532Z,4.73
2023-01-30T13:12:04.406Z,4.76
2023-01-30T13:17:06.384Z,4.8
2023-01-30T13:22:08.264Z,4.85
2023-01-30T13:27:09.877Z,4.82
2023-01-30T13:32:11.600Z,4.71
2023-01-30T13:37:19.742Z,4.63
2023-01-30T13:42:21.341Z,4.52
2023-01-30T13:47:22.666Z,4.39
2023-01-30T13:52:24.035Z,4.26
2023-01-30T13:57:26.069Z,4.23
2023-01-30T14:02:27.412Z,4.23
2023-01-30T14:07:29.193Z,4.16
2023-01-30T14:12:31.161Z,3.95
2023-01-30T14:17:32.857Z,3.79
2023-01-30T14:22:34.514Z,3.79
2023-01-30T14:27:36.013Z,3.72
2023-01-30T14:32:39.589Z,3.67
2023-01-30T14:37:38.502Z,3.69
2023-01-30T14:42:40.533Z,3.75
2023-01-30T14:47:47.231Z,3.74
2023-01-30T14:52:44.340Z,3.69
2023-01-30T14:57:45.978Z,3.67
2023-01-30T15:02:47.598Z,3.69
2023-01-30T15:07:49.368Z,3.67
2023-01-30T15:12:51.368Z,3.61
2023-01-30T15:18:06.008Z,3.58
2023-01-30T15:22:54.676Z,3.59
2023-01-30T15:27:55.841Z,3.56
2023-01-30T15:32:57.579Z,3.52
2023-01-30T15:37:59.358Z,3.52
2023-01-30T15:43:00.751Z,3.52
2023-01-30T15:48:02.736Z,3.46
2023-01-30T15:53:04.452Z,3.37
2023-01-30T15:58:06.719Z,3.18
2023-01-30T16:03:08.659Z,2.97
2023-01-30T16:08:10.786Z,2.91
2023-01-30T16:13:12.852Z,2.82
2023-01-30T16:18:14.742Z,2.78
2023-01-30T16:23:16.089Z,2.69
2023-01-30T16:28:18.011Z,2.6
2023-01-30T16:33:20.058Z,2.41
2023-01-30T16:38:22.049Z,2.33
2023-01-30T16:43:24.136Z,2.36
2023-01-30T16:48:26.210Z,2.29
2023-01-30T16:53:28.082Z,2.25
2023-01-30T16:58:29.883Z,2.24
2023-01-30T17:03:31.630Z,2.28
2023-01-30T17:08:33.163Z,2.3
2023-01-30T17:13:34.282Z,2.24
2023-01-30T17:18:35.744Z,2.27
2023-01-30T17:23:37.843Z,2.38
2023-01-30T17:28:39.562Z,2.44
2023-01-30T17:33:40.978Z,2.49
2023-01-30T17:38:42.280Z,2.45
2023-01-30T17:43:43.421Z,2.43
2023-01-30T17:48:44.772Z,2.33
2023-01-30T17:53:46.560Z,2.23
2023-01-30T17:58:48.430Z,2.21
2023-01-30T18:03:49.760Z,2.25
2023-01-30T18:08:51.169Z,2.27
2023-01-30T18:13:52.700Z,2.24
2023-01-30T18:18:54.664Z,2.24
2023-01-30T18:23:56.303Z,2.26
2023-01-30T18:28:58.359Z,2.27
2023-01-30T18:33:59.733Z,2.25
2023-01-30T18:39:01.698Z,2.25
2023-01-30T18:44:03.785Z,2.33
2023-01-30T18:49:05.595Z,2.36
2023-01-30T18:54:07.466Z,2.36
2023-01-30T18:59:09.538Z,2.36
2023-01-30T19:04:10.802Z,2.4
2023-01-30T19:09:12.486Z,2.44
2023-01-30T19:14:14.513Z,2.42
2023-01-30T19:19:16.193Z,2.38
2023-01-30T19:24:18.332Z,2.36
2023-01-30T19:29:19.974Z,2.4
2023-01-30T19:34:21.237Z,2.38
2023-01-30T19:39:22.744Z,2.36
2023-01-30T19:44:24.590Z,2.39
2023-01-30T19:49:25.795Z,2.46
2023-01-30T19:54:27.579Z,2.48
2023-01-30T19:59:29.592Z,2.44
2023-01-30T20:04:30.941Z,2.47
2023-01-30T20:09:32.778Z,2.51
2023-01-30T20:14:34.877Z,2.48
2023-01-30T20:19:36.220Z,2.46
2023-01-30T20:24:37.459Z,2.45
2023-01-30T20:29:39.386Z,2.47
2023-01-30T20:34:41.597Z,2.46
2023-01-30T20:39:43.124Z,2.46
2023-01-30T20:44:44.577Z,2.49
2023-01-30T20:49:46.322Z,2.57
2023-01-30T20:54:47.564Z,2.55
2023-01-30T20:59:49.234Z,2.51
2023-01-30T21:04:50.572Z,2.53
2023-01-30T21:09:52.286Z,2.59
2023-01-30T21:14:53.603Z,2.57
2023-01-30T21:19:54.726Z,2.55
2023-01-30T21:24:56.048Z,2.56
2023-01-30T21:29:58.129Z,2.58
2023-01-30T21:35:00.005Z,2.56
2023-01-30T21:40:01.921Z,2.53
2023-01-30T21:45:03.408Z,2.55
2023-01-30T21:50:04.855Z,2.57
2023-01-30T21:55:06.345Z,2.49
2023-01-30T22:00:08.414Z,2.39
2023-01-30T23:00:28.130Z,2.28
2023-01-30T23:05:29.943Z,2.32
2023-01-30T23:15:33.569Z,2.35
2023-01-30T23:30:38.097Z,2.45
2023-01-30T23:35:40.109Z,2.44
2023-01-30T23:40:41.543Z,2.42
2023-01-30T23:45:43.784Z,2.44
2023-01-30T23:50:45.671Z,2.51
2023-01-30T23:55:47.325Z,2.51
